Time;durP1;ratioP1;P1;durP2;ratioP2;P2;SDS_P1;SDS_P2;PMS_P1;PMS_P2;Temp;Humidity;BMP_temperature;BMP_pressure;BME280_temperature;BME280_humidity;BME280_pressure;Samples;Min_cycle;Max_cycle;Signal;HPM_P1;HPM_P2
2021/11/08 00:01:14;;;;;;;11.63;3.23;;;7.50;99.90;;;;;;5026057;28;20284;-73
2021/11/08 00:03:44;;;;;;;8.23;2.37;;;7.50;99.90;;;;;;5026140;28;20747;-73
2021/11/08 00:06:11;;;;;;;11.23;2.73;;;7.50;99.90;;;;;;5026300;28;21036;-73
2021/11/08 00:08:39;;;;;;;9.80;3.17;;;7.50;99.90;;;;;;5026620;28;20201;-72
2021/11/08 00:11:06;;;;;;;11.53;2.93;;;7.50;99.90;;;;;;5026610;28;20209;-73
2021/11/08 00:13:33;;;;;;;9.67;3.03;;;7.50;99.90;;;;;;5026424;28;20239;-74
2021/11/08 00:16:09;;;;;;;12.43;2.60;;;7.40;99.90;;;;;;5026194;28;20248;-73
2021/11/08 00:18:42;;;;;;;10.57;2.80;;;7.50;99.90;;;;;;5026071;28;20672;-73
2021/11/08 00:21:09;;;;;;;12.70;2.90;;;7.40;99.90;;;;;;5026311;28;20310;-73
2021/11/08 00:23:37;;;;;;;11.13;3.07;;;7.40;99.90;;;;;;5026481;28;20205;-73
2021/11/08 00:26:04;;;;;;;12.33;3.50;;;7.40;99.90;;;;;;5026285;28;20213;-73
2021/11/08 00:28:30;;;;;;;9.70;2.43;;;7.30;99.90;;;;;;5026134;28;20212;-72
2021/11/08 00:30:57;;;;;;;7.70;3.33;;;7.30;99.90;;;;;;5026166;28;20225;-72
2021/11/08 00:33:25;;;;;;;13.23;3.00;;;7.30;99.90;;;;;;5025954;28;20258;-72
2021/11/08 00:35:56;;;;;;;10.77;2.80;;;7.30;99.90;;;;;;5026231;28;20247;-72
2021/11/08 00:38:23;;;;;;;12.43;2.90;;;7.30;99.90;;;;;;5026081;28;20282;-72
2021/11/08 00:40:49;;;;;;;12.53;3.60;;;7.30;99.90;;;;;;5026548;28;20209;-72
2021/11/08 00:43:18;;;;;;;13.10;3.13;;;7.30;99.90;;;;;;5025807;28;20242;-72
2021/11/08 00:45:45;;;;;;;8.03;2.50;;;7.30;99.90;;;;;;5026143;28;20208;-72
2021/11/08 00:48:13;;;;;;;12.60;3.00;;;7.30;99.90;;;;;;5026045;28;20244;-72
2021/11/08 00:50:40;;;;;;;11.57;2.53;;;7.30;99.90;;;;;;5026032;28;20209;-72
2021/11/08 00:53:08;;;;;;;11.87;3.07;;;7.30;99.90;;;;;;5025516;28;20730;-72
2021/11/08 00:55:37;;;;;;;11.77;2.53;;;7.40;99.90;;;;;;5025985;28;20229;-73
2021/11/08 00:58:03;;;;;;;9.37;2.87;;;7.40;99.90;;;;;;5025870;28;20736;-72
2021/11/08 01:00:32;;;;;;;14.97;3.20;;;7.40;99.90;;;;;;5025629;28;20283;-74
2021/11/08 01:03:02;;;;;;;10.33;2.90;;;7.40;99.90;;;;;;5026067;28;20209;-74
2021/11/08 01:05:30;;;;;;;13.00;2.73;;;7.40;99.90;;;;;;5025904;28;20588;-74
2021/11/08 01:07:56;;;;;;;9.37;2.43;;;7.40;99.90;;;;;;5026020;28;20261;-72
2021/11/08 01:10:24;;;;;;;10.63;2.90;;;7.40;99.90;;;;;;5025915;28;20214;-72
2021/11/08 01:12:51;;;;;;;9.93;3.00;;;7.50;99.90;;;;;;5025867;28;20357;-72
2021/11/08 01:15:18;;;;;;;10.53;2.90;;;7.40;99.90;;;;;;5025750;28;20229;-74
2021/11/08 01:17:45;;;;;;;9.53;2.70;;;7.50;99.90;;;;;;5025718;28;20268;-75
2021/11/08 01:20:14;;;;;;;11.30;2.57;;;7.50;99.90;;;;;;5025374;28;20219;-74
2021/11/08 01:22:41;;;;;;;11.47;2.83;;;7.50;99.90;;;;;;5025800;28;20216;-73
2021/11/08 01:25:10;;;;;;;10.20;2.87;;;7.50;99.90;;;;;;5025349;28;20258;-73
2021/11/08 01:27:42;;;;;;;12.67;2.47;;;7.50;99.90;;;;;;5025571;28;20209;-73
2021/11/08 01:30:13;;;;;;;12.03;3.03;;;7.50;99.90;;;;;;5025517;28;20275;-73
2021/11/08 01:32:40;;;;;;;7.23;2.47;;;7.50;99.90;;;;;;5025533;28;20197;-73
2021/11/08 01:35:08;;;;;;;10.43;2.53;;;7.50;99.90;;;;;;5025045;28;20663;-72
2021/11/08 01:37:36;;;;;;;8.03;2.30;;;7.50;99.90;;;;;;5025264;28;20240;-72
2021/11/08 01:40:05;;;;;;;7.47;2.43;;;7.50;99.90;;;;;;5025550;28;20209;-72
2021/11/08 01:42:31;;;;;;;8.90;2.40;;;7.50;99.90;;;;;;5025122;28;20208;-73
2021/11/08 01:44:59;;;;;;;8.50;2.27;;;7.60;99.90;;;;;;5025309;28;20244;-73
2021/11/08 01:47:28;;;;;;;9.17;2.50;;;7.60;99.90;;;;;;5025129;28;20209;-73
2021/11/08 01:49:54;;;;;;;9.03;2.47;;;7.60;99.90;;;;;;5025259;28;20698;-72
2021/11/08 01:52:21;;;;;;;9.10;2.70;;;7.60;99.90;;;;;;5025082;28;20252;-72
2021/11/08 01:54:48;;;;;;;7.57;2.20;;;7.60;99.90;;;;;;5026962;28;20733;-73
2021/11/08 01:57:14;;;;;;;8.53;2.07;;;7.60;99.90;;;;;;5028556;28;20232;-72
2021/11/08 01:59:41;;;;;;;12.47;2.40;;;7.60;99.90;;;;;;5028653;28;20582;-72
2021/11/08 02:02:10;;;;;;;15.87;2.37;;;7.70;99.90;;;;;;5028728;28;20226;-72
2021/11/08 02:04:36;;;;;;;9.40;2.20;;;7.60;99.90;;;;;;5028841;28;20261;-73
2021/11/08 02:07:03;;;;;;;8.07;2.97;;;7.70;99.90;;;;;;5028710;28;20252;-73
2021/11/08 02:09:30;;;;;;;10.00;2.83;;;7.70;99.90;;;;;;5028505;28;20250;-72
2021/11/08 02:11:57;;;;;;;11.50;2.63;;;7.60;99.90;;;;;;5028630;28;20228;-73
2021/11/08 02:14:23;;;;;;;9.67;2.37;;;7.60;99.90;;;;;;5020593;28;20230;-72
2021/11/08 02:16:51;;;;;;;11.90;3.13;;;7.60;99.90;;;;;;5008585;28;20265;-72
2021/11/08 02:19:19;;;;;;;9.40;2.70;;;7.60;99.90;;;;;;5008687;28;20205;-73
2021/11/08 02:21:47;;;;;;;12.90;2.80;;;7.60;99.90;;;;;;5008466;28;20687;-73
2021/11/08 02:24:16;;;;;;;7.47;2.40;;;7.60;99.90;;;;;;5008524;28;20209;-72
2021/11/08 02:26:45;;;;;;;11.07;2.50;;;7.60;99.90;;;;;;5008559;28;20220;-73
2021/11/08 02:29:13;;;;;;;11.73;2.73;;;7.60;99.90;;;;;;5008449;28;20241;-71
2021/11/08 02:31:40;;;;;;;9.60;2.63;;;7.60;99.90;;;;;;5008056;28;20878;-72
2021/11/08 02:34:06;;;;;;;11.13;2.73;;;7.60;99.90;;;;;;5008403;28;20205;-72
2021/11/08 02:36:34;;;;;;;14.30;2.90;;;7.60;99.90;;;;;;5008533;28;20338;-71
2021/11/08 02:39:03;;;;;;;14.13;2.77;;;7.60;99.90;;;;;;5008446;28;20216;-72
2021/11/08 02:41:29;;;;;;;13.23;4.00;;;7.60;99.90;;;;;;5008232;28;20210;-72
2021/11/08 02:43:57;;;;;;;10.80;2.93;;;7.50;99.90;;;;;;5008413;28;20262;-71
2021/11/08 02:46:26;;;;;;;13.43;2.87;;;7.50;99.90;;;;;;5007869;28;20229;-71
2021/11/08 02:48:57;;;;;;;10.17;2.33;;;7.50;99.90;;;;;;5008367;28;20280;-72
2021/11/08 02:51:25;;;;;;;11.57;3.10;;;7.50;99.90;;;;;;5007950;28;20674;-72
2021/11/08 02:53:55;;;;;;;9.90;2.40;;;7.50;99.90;;;;;;5008167;28;20305;-72
2021/11/08 02:56:23;;;;;;;13.70;3.00;;;7.50;99.90;;;;;;5007769;28;20794;-72
2021/11/08 02:58:50;;;;;;;12.83;3.27;;;7.50;99.90;;;;;;5008126;28;20213;-72
2021/11/08 03:01:20;;;;;;;11.73;3.43;;;7.50;99.90;;;;;;5007658;28;20230;-72
2021/11/08 03:03:50;;;;;;;17.57;3.37;;;7.50;99.90;;;;;;5008154;28;20225;-75
2021/11/08 03:06:20;;;;;;;8.83;3.10;;;7.50;99.90;;;;;;5008044;28;20190;-75
2021/11/08 03:08:48;;;;;;;13.40;3.13;;;7.50;99.90;;;;;;5007996;28;20270;-75
2021/11/08 03:11:15;;;;;;;10.33;3.30;;;7.50;99.90;;;;;;5007894;28;20263;-75
2021/11/08 03:13:52;;;;;;;10.70;3.07;;;7.50;99.90;;;;;;5007559;28;20936;-73
2021/11/08 03:16:23;;;;;;;10.03;3.17;;;7.50;99.90;;;;;;5007361;28;20730;-72
2021/11/08 03:18:55;;;;;;;11.27;3.07;;;7.50;99.90;;;;;;5010513;28;20564;-73
2021/11/08 03:21:23;;;;;;;10.33;3.07;;;7.50;99.90;;;;;;5007898;28;20206;-73
2021/11/08 03:23:52;;;;;;;8.17;2.80;;;7.50;99.90;;;;;;5007758;28;20258;-72
2021/11/08 03:26:33;;;;;;;11.90;3.07;;;7.50;99.90;;;;;;5007236;28;20677;-71
2021/11/08 03:29:01;;;;;;;13.40;3.50;;;7.50;99.90;;;;;;5007444;28;20737;-72
2021/11/08 03:31:29;;;;;;;9.87;3.17;;;7.50;99.90;;;;;;5010990;28;20205;-72
2021/11/08 03:33:56;;;;;;;10.90;3.43;;;7.50;99.90;;;;;;5024883;28;20213;-72
2021/11/08 03:36:23;;;;;;;12.87;3.63;;;7.50;99.90;;;;;;5025015;28;20205;-72
2021/11/08 03:38:49;;;;;;;12.67;3.17;;;7.50;99.90;;;;;;5024986;28;20232;-72
2021/11/08 03:41:16;;;;;;;15.43;3.80;;;7.50;99.90;;;;;;5025333;28;20271;-72
2021/11/08 03:43:43;;;;;;;14.90;3.43;;;7.50;99.90;;;;;;5025141;28;20236;-71
2021/11/08 03:46:11;;;;;;;12.60;2.87;;;7.50;99.90;;;;;;5025156;28;20297;-73
2021/11/08 03:48:38;;;;;;;12.10;4.03;;;7.60;99.90;;;;;;5025541;28;20232;-72
2021/11/08 03:51:04;;;;;;;15.03;4.27;;;7.60;99.90;;;;;;5024955;28;20209;-72
2021/11/08 03:53:31;;;;;;;15.40;3.10;;;7.60;99.90;;;;;;5024429;28;20734;-72
2021/11/08 03:55:58;;;;;;;12.97;3.37;;;7.60;99.90;;;;;;5024698;28;20752;-71
2021/11/08 03:58:24;;;;;;;13.07;3.07;;;7.60;99.90;;;;;;5024516;28;20232;-71
2021/11/08 04:00:51;;;;;;;13.73;3.17;;;7.60;99.90;;;;;;5024501;28;20237;-70
2021/11/08 04:03:20;;;;;;;10.63;3.00;;;7.60;99.90;;;;;;5020637;28;20213;-70
2021/11/08 04:05:47;;;;;;;13.67;2.87;;;7.70;99.90;;;;;;5012364;28;20218;-70
2021/11/08 04:08:18;;;;;;;12.13;3.03;;;7.70;99.90;;;;;;5005729;28;20213;-70
2021/11/08 04:10:47;;;;;;;10.17;3.10;;;7.70;99.90;;;;;;5005647;28;20276;-70
2021/11/08 04:13:15;;;;;;;8.80;2.53;;;7.70;99.90;;;;;;5005459;28;20229;-70
2021/11/08 04:15:44;;;;;;;10.10;2.70;;;7.70;99.90;;;;;;5005512;28;20212;-70
2021/11/08 04:18:15;;;;;;;22.97;3.47;;;7.80;99.90;;;;;;5004632;28;20320;-70
2021/11/08 04:20:45;;;;;;;16.37;2.93;;;7.70;99.90;;;;;;5005684;28;20308;-70
2021/11/08 04:23:13;;;;;;;12.23;3.20;;;7.80;99.90;;;;;;5006712;28;20209;-70
2021/11/08 04:25:40;;;;;;;17.60;3.40;;;7.80;99.90;;;;;;5006506;28;20659;-70
2021/11/08 04:28:07;;;;;;;10.93;2.77;;;7.80;99.90;;;;;;5006151;28;20743;-70
2021/11/08 04:30:37;;;;;;;19.27;3.40;;;7.80;99.90;;;;;;5006418;28;20221;-70
2021/11/08 04:33:15;;;;;;;11.13;3.30;;;7.80;99.90;;;;;;5006624;28;20194;-70
2021/11/08 04:35:52;;;;;;;12.00;3.03;;;7.80;99.90;;;;;;5006531;28;20201;-70
2021/11/08 04:38:42;;;;;;;13.60;3.30;;;7.80;99.90;;;;;;5006284;28;20222;-70
2021/11/08 04:41:16;;;;;;;10.83;2.77;;;7.80;99.90;;;;;;5006011;28;20711;-70
2021/11/08 04:43:52;;;;;;;14.57;3.27;;;7.80;99.90;;;;;;5006395;28;20198;-70
2021/11/08 04:46:38;;;;;;;12.30;3.23;;;7.80;99.90;;;;;;5006008;28;20206;-70
2021/11/08 04:49:18;;;;;;;17.43;3.57;;;7.80;99.90;;;;;;5006347;28;20283;-70
2021/11/08 04:51:54;;;;;;;16.70;3.10;;;7.90;99.90;;;;;;5006302;28;20225;-70
2021/11/08 04:54:29;;;;;;;14.93;3.10;;;7.90;99.90;;;;;;5006391;28;20225;-70
2021/11/08 04:57:18;;;;;;;14.53;4.27;;;7.90;99.90;;;;;;5006408;28;20204;-70
2021/11/08 05:21:52;;;;;;;12.87;3.17;;;8.10;99.90;;;;;;5005683;28;20310;-70
2021/11/08 05:29:58;;;;;;;12.33;3.00;;;8.10;99.90;;;;;;5004792;28;20224;-70
2021/11/08 05:32:26;;;;;;;10.23;2.90;;;8.10;99.90;;;;;;5005787;28;20198;-71
2021/11/08 05:34:53;;;;;;;11.43;3.20;;;8.10;99.90;;;;;;5006102;28;20206;-70
2021/11/08 05:37:21;;;;;;;10.07;2.97;;;8.10;99.90;;;;;;5005594;28;20269;-70
2021/11/08 05:39:52;;;;;;;11.60;3.57;;;8.20;99.90;;;;;;5005433;28;20305;-70
2021/11/08 05:42:20;;;;;;;16.93;3.43;;;8.20;99.90;;;;;;5005455;28;20198;-70
2021/11/08 05:44:47;;;;;;;15.23;3.50;;;8.20;99.90;;;;;;5005663;28;20209;-70
2021/11/08 05:47:13;;;;;;;14.03;3.20;;;8.20;99.90;;;;;;5005650;28;20266;-70
2021/11/08 05:49:42;;;;;;;9.57;2.90;;;8.20;99.90;;;;;;5005710;28;20228;-71
2021/11/08 05:52:09;;;;;;;11.60;2.87;;;8.20;99.90;;;;;;5005379;28;20253;-70
2021/11/08 05:54:36;;;;;;;12.03;2.80;;;8.30;99.90;;;;;;5005693;28;20314;-70
2021/11/08 05:57:37;;;;;;;7.97;2.80;;;8.30;99.90;;;;;;5005621;28;20209;-70
2021/11/08 06:00:36;;;;;;;6.33;2.43;;;8.30;99.90;;;;;;5005211;28;20241;-70
2021/11/08 06:49:51;;;;;;;11.80;2.90;;;8.40;99.90;;;;;;5027997;28;20232;-70
2021/11/08 06:52:19;;;;;;;11.17;4.77;;;8.40;99.90;;;;;;5027849;28;20225;-70
2021/11/08 06:54:48;;;;;;;10.30;3.13;;;8.40;99.90;;;;;;5027743;28;20587;-70
2021/11/08 06:57:16;;;;;;;8.80;2.50;;;8.40;99.90;;;;;;5027957;28;20211;-71
2021/11/08 06:59:48;;;;;;;6.93;2.10;;;8.40;99.90;;;;;;5027673;28;20237;-70
2021/11/08 07:02:18;;;;;;;7.70;2.50;;;8.40;99.90;;;;;;5027631;28;20231;-70
2021/11/08 07:04:44;;;;;;;9.93;3.30;;;8.40;99.90;;;;;;5028102;28;20197;-71
2021/11/08 07:07:11;;;;;;;13.53;3.50;;;8.40;99.90;;;;;;5027552;28;20567;-70
2021/11/08 07:09:39;;;;;;;10.43;3.50;;;8.40;99.90;;;;;;5027909;28;20270;-70
2021/11/08 07:12:07;;;;;;;6.47;2.73;;;8.40;99.90;;;;;;5027849;27;20224;-71
2021/11/08 07:14:34;;;;;;;8.10;2.83;;;8.40;99.90;;;;;;5027745;28;20239;-70
2021/11/08 07:17:01;;;;;;;8.13;2.40;;;8.50;99.90;;;;;;5027656;28;20252;-70
2021/11/08 07:19:29;;;;;;;8.27;2.93;;;8.50;99.90;;;;;;5027684;28;21059;-70
2021/11/08 07:21:56;;;;;;;5.30;2.20;;;8.50;99.90;;;;;;5027045;28;20240;-70
2021/11/08 07:24:23;;;;;;;7.63;2.40;;;8.50;99.90;;;;;;5027421;28;20213;-70
2021/11/08 07:26:50;;;;;;;9.53;2.90;;;8.60;99.90;;;;;;5027415;28;20209;-70
2021/11/08 07:29:16;;;;;;;5.10;2.40;;;8.60;99.90;;;;;;5027332;28;20680;-70
2021/11/08 07:31:45;;;;;;;9.53;2.47;;;8.60;99.90;;;;;;5027318;28;20612;-71
2021/11/08 07:34:12;;;;;;;7.97;2.83;;;8.60;99.90;;;;;;5027399;28;20248;-70
2021/11/08 07:36:40;;;;;;;5.90;2.33;;;8.60;99.90;;;;;;5027035;28;20244;-70
2021/11/08 07:39:07;;;;;;;9.43;2.97;;;8.60;99.90;;;;;;5027028;28;20268;-70
2021/11/08 07:41:35;;;;;;;8.47;2.50;;;8.60;99.90;;;;;;5027125;28;20209;-70
2021/11/08 07:44:01;;;;;;;8.37;2.40;;;8.60;99.90;;;;;;5027006;28;20269;-70
2021/11/08 07:46:28;;;;;;;9.53;2.67;;;8.60;99.90;;;;;;5027122;28;20209;-70
2021/11/08 07:48:55;;;;;;;7.67;2.37;;;8.60;99.90;;;;;;5027244;28;20281;-70
2021/11/08 07:51:22;;;;;;;11.43;2.73;;;8.60;99.90;;;;;;5026288;28;20278;-71
2021/11/08 07:53:51;;;;;;;15.17;3.30;;;8.60;99.90;;;;;;5026912;28;20236;-70
2021/11/08 07:56:17;;;;;;;20.37;4.20;;;8.60;99.90;;;;;;5026737;28;20217;-70
2021/11/08 07:58:44;;;;;;;18.57;3.80;;;8.60;99.90;;;;;;5026796;28;20264;-70
2021/11/08 08:01:11;;;;;;;10.70;2.67;;;8.70;99.90;;;;;;5026120;28;20570;-70
2021/11/08 08:03:38;;;;;;;10.87;2.40;;;8.70;99.90;;;;;;5026906;28;20205;-70
2021/11/08 08:06:06;;;;;;;7.33;2.27;;;8.70;99.90;;;;;;5026838;28;20209;-70
2021/11/08 08:08:35;;;;;;;9.57;2.67;;;8.70;99.90;;;;;;5026740;28;20213;-70
2021/11/08 08:11:04;;;;;;;9.27;2.50;;;8.70;99.90;;;;;;5026730;28;20201;-70
2021/11/08 08:13:33;;;;;;;11.23;2.50;;;8.70;99.90;;;;;;5026324;28;20323;-70
2021/11/08 08:16:02;;;;;;;10.90;2.80;;;8.70;99.90;;;;;;5026903;28;20213;-70
2021/11/08 08:18:30;;;;;;;10.80;2.70;;;8.70;99.90;;;;;;5026296;28;20265;-70
2021/11/08 08:20:58;;;;;;;13.60;2.77;;;8.70;99.90;;;;;;5026761;28;20205;-70
2021/11/08 08:23:25;;;;;;;15.03;3.40;;;8.70;99.90;;;;;;5026505;28;20229;-71
2021/11/08 08:25:52;;;;;;;10.17;2.77;;;8.80;99.90;;;;;;5026445;28;20232;-70
2021/11/08 08:28:20;;;;;;;6.30;1.87;;;8.80;99.90;;;;;;5026127;28;20652;-70
2021/11/08 08:30:47;;;;;;;2.77;1.60;;;8.80;99.90;;;;;;5026687;28;20269;-70
2021/11/08 08:33:14;;;;;;;6.43;2.17;;;8.80;99.90;;;;;;5026313;28;20205;-70
2021/11/08 08:35:41;;;;;;;8.73;2.57;;;8.80;99.90;;;;;;5026371;28;20236;-70
2021/11/08 08:38:09;;;;;;;10.17;2.83;;;8.80;99.90;;;;;;5026498;28;20229;-70
2021/11/08 08:40:37;;;;;;;9.80;2.40;;;8.80;99.90;;;;;;5026705;28;20212;-70
2021/11/08 08:43:05;;;;;;;9.27;2.43;;;8.80;99.90;;;;;;5026188;28;20932;-70
2021/11/08 08:45:34;;;;;;;7.27;1.90;;;8.80;99.90;;;;;;5025805;28;20609;-71
2021/11/08 08:48:00;;;;;;;8.47;2.17;;;8.80;99.90;;;;;;5026389;28;20284;-71
2021/11/08 08:50:30;;;;;;;6.80;2.07;;;8.80;99.90;;;;;;5026149;28;20260;-70
2021/11/08 08:52:57;;;;;;;8.70;2.40;;;8.80;99.90;;;;;;5026156;28;20654;-71
2021/11/08 08:55:25;;;;;;;6.30;2.20;;;8.80;99.90;;;;;;5025892;28;20262;-71
2021/11/08 08:57:52;;;;;;;11.07;2.70;;;8.80;99.90;;;;;;5025965;28;20244;-70
2021/11/08 09:00:21;;;;;;;6.13;1.70;;;8.80;99.90;;;;;;5025795;28;20654;-70
2021/11/08 09:02:51;;;;;;;6.03;2.07;;;8.90;99.90;;;;;;5025778;28;20244;-70
2021/11/08 09:05:18;;;;;;;7.87;2.33;;;8.90;99.90;;;;;;5025751;28;20208;-70
2021/11/08 09:07:44;;;;;;;6.97;3.13;;;8.90;99.90;;;;;;5025918;28;20236;-70
2021/11/08 09:10:11;;;;;;;7.47;2.30;;;8.80;99.90;;;;;;5025740;28;20205;-71
2021/11/08 09:12:39;;;;;;;9.27;2.20;;;8.90;99.90;;;;;;5025297;28;20714;-70
2021/11/08 09:15:07;;;;;;;11.30;2.50;;;8.90;99.90;;;;;;5025764;28;20236;-70
2021/11/08 09:17:34;;;;;;;6.90;2.73;;;8.90;99.90;;;;;;5025579;28;20644;-71
2021/11/08 09:20:02;;;;;;;6.83;2.63;;;8.90;99.90;;;;;;5025807;28;20241;-70
2021/11/08 09:22:29;;;;;;;9.30;3.00;;;8.90;99.90;;;;;;5025735;28;20246;-70
2021/11/08 09:24:56;;;;;;;8.50;2.73;;;8.90;99.90;;;;;;5025516;28;20237;-70
2021/11/08 09:27:23;;;;;;;10.10;2.87;;;8.90;99.90;;;;;;5025645;28;20219;-71
2021/11/08 09:29:50;;;;;;;8.13;2.60;;;8.90;99.90;;;;;;5025665;28;20220;-70
2021/11/08 09:32:16;;;;;;;7.00;2.20;;;9.00;99.90;;;;;;5025365;28;20212;-70
2021/11/08 09:34:46;;;;;;;7.87;2.33;;;9.00;99.90;;;;;;5025704;28;20204;-71
2021/11/08 09:37:17;;;;;;;8.97;2.67;;;9.00;99.90;;;;;;5025780;28;20570;-70
2021/11/08 09:39:45;;;;;;;6.13;1.93;;;9.00;99.90;;;;;;5025774;28;20220;-71
2021/11/08 09:42:14;;;;;;;7.77;2.40;;;9.00;99.90;;;;;;5025693;28;20213;-70
2021/11/08 09:44:42;;;;;;;5.17;2.23;;;9.00;99.90;;;;;;5025705;28;20216;-71
2021/11/08 09:47:09;;;;;;;10.67;2.87;;;9.00;99.90;;;;;;5025482;28;20209;-70
2021/11/08 09:49:47;;;;;;;5.83;2.20;;;9.10;99.90;;;;;;5025563;28;20209;-70
2021/11/08 09:52:17;;;;;;;8.13;2.40;;;9.10;99.90;;;;;;5025541;28;20289;-70
2021/11/08 09:54:44;;;;;;;9.07;2.67;;;9.10;99.90;;;;;;5025428;28;20301;-70
2021/11/08 09:57:11;;;;;;;9.50;2.57;;;9.10;99.90;;;;;;5025207;28;20209;-71
2021/11/08 09:59:38;;;;;;;6.53;2.47;;;9.20;99.90;;;;;;5024384;28;20821;-70
2021/11/08 10:02:11;;;;;;;8.43;2.37;;;9.20;99.90;;;;;;5025137;28;20190;-70
2021/11/08 10:04:38;;;;;;;7.80;2.17;;;9.20;99.90;;;;;;5025072;28;20220;-70
2021/11/08 10:07:05;;;;;;;8.23;2.87;;;9.30;99.90;;;;;;5024714;28;20739;-71
2021/11/08 10:09:33;;;;;;;6.30;2.17;;;9.30;99.90;;;;;;5025045;28;20244;-70
2021/11/08 10:12:00;;;;;;;7.53;2.27;;;9.40;99.90;;;;;;5025068;28;20256;-70
2021/11/08 10:14:27;;;;;;;9.93;3.07;;;9.40;99.90;;;;;;5025289;28;20213;-70
2021/11/08 10:16:58;;;;;;;8.50;2.63;;;9.50;99.90;;;;;;5028397;28;20259;-70
2021/11/08 10:19:26;;;;;;;15.03;5.20;;;9.50;99.90;;;;;;5028206;28;20328;-70
2021/11/08 10:21:55;;;;;;;6.57;2.37;;;9.60;99.90;;;;;;5028443;28;20217;-70
2021/11/08 10:24:25;;;;;;;10.13;2.70;;;9.60;99.90;;;;;;5028259;28;20300;-70
2021/11/08 10:26:55;;;;;;;7.80;2.60;;;9.70;99.90;;;;;;5028229;28;20234;-71
2021/11/08 10:29:24;;;;;;;7.63;2.60;;;9.70;99.90;;;;;;5028064;28;20260;-70
2021/11/08 10:31:54;;;;;;;10.93;2.57;;;9.70;99.90;;;;;;5028057;28;20212;-70
2021/11/08 10:34:22;;;;;;;7.50;2.80;;;9.70;99.90;;;;;;5028216;28;20258;-70
2021/11/08 10:36:58;;;;;;;8.80;2.33;;;9.80;99.90;;;;;;5028232;28;20244;-70
2021/11/08 10:39:25;;;;;;;7.80;2.23;;;9.80;99.90;;;;;;5028156;28;20248;-70
2021/11/08 10:41:55;;;;;;;11.37;2.50;;;9.80;99.90;;;;;;5028395;28;20262;-70
2021/11/08 10:44:24;;;;;;;10.83;2.50;;;9.80;99.90;;;;;;5027890;28;20296;-70
2021/11/08 10:46:55;;;;;;;8.30;3.07;;;9.90;99.90;;;;;;5027355;28;20658;-70
2021/11/08 10:49:29;;;;;;;9.10;2.73;;;9.90;99.90;;;;;;5027760;28;20256;-70
2021/11/08 10:51:58;;;;;;;5.93;2.13;;;9.90;99.90;;;;;;5028018;28;20271;-70
2021/11/08 10:54:27;;;;;;;11.17;2.50;;;9.90;99.90;;;;;;5027969;28;20265;-70
2021/11/08 10:56:59;;;;;;;10.67;2.20;;;9.90;99.90;;;;;;5028144;28;20286;-71
2021/11/08 10:59:37;;;;;;;4.47;2.40;;;9.90;99.90;;;;;;5027594;28;20264;-70
2021/11/08 11:02:07;;;;;;;9.73;2.50;;;9.90;99.90;;;;;;5028005;28;20215;-70
2021/11/08 11:04:38;;;;;;;5.17;1.90;;;9.90;99.90;;;;;;5027903;28;20209;-70
2021/11/08 11:07:06;;;;;;;6.97;2.00;;;9.90;99.90;;;;;;5027968;28;20627;-70
2021/11/08 11:09:36;;;;;;;8.77;2.83;;;9.90;99.90;;;;;;5027607;28;20663;-70
2021/11/08 11:12:11;;;;;;;10.33;2.20;;;10.00;99.90;;;;;;5027740;28;20229;-70
2021/11/08 11:14:40;;;;;;;9.33;2.13;;;9.90;99.90;;;;;;5027735;28;20535;-70
2021/11/08 11:17:09;;;;;;;8.70;1.93;;;10.00;99.90;;;;;;5027319;28;20205;-70
2021/11/08 11:19:37;;;;;;;10.47;2.73;;;10.00;99.90;;;;;;5027578;28;20261;-70
2021/11/08 11:22:09;;;;;;;7.77;2.10;;;10.00;99.90;;;;;;5027491;28;20209;-70
2021/11/08 11:24:46;;;;;;;8.00;2.93;;;10.00;99.90;;;;;;5027462;28;20193;-70
2021/11/08 11:27:29;;;;;;;6.60;2.20;;;10.10;99.90;;;;;;5025557;28;20651;-70
2021/11/08 11:30:10;;;;;;;11.57;2.80;;;10.10;99.90;;;;;;5027909;28;20212;-70
2021/11/08 11:32:37;;;;;;;7.53;2.20;;;10.20;99.90;;;;;;5027349;28;20200;-70
2021/11/08 11:35:13;;;;;;;8.93;2.63;;;10.20;99.90;;;;;;5027290;28;20209;-70
2021/11/08 11:37:39;;;;;;;4.83;2.33;;;10.30;99.90;;;;;;5027334;28;20277;-70
2021/11/08 11:40:10;;;;;;;12.83;2.87;;;10.30;99.90;;;;;;5026890;28;20264;-70
2021/11/08 11:42:48;;;;;;;13.37;2.70;;;10.30;99.90;;;;;;5027196;28;20237;-70
2021/11/08 11:45:15;;;;;;;8.50;2.57;;;10.20;99.90;;;;;;5026892;28;20225;-70
2021/11/08 11:47:42;;;;;;;6.70;3.03;;;10.20;99.90;;;;;;5026898;28;20592;-70
2021/11/08 11:50:10;;;;;;;6.93;2.13;;;10.20;99.90;;;;;;5026842;28;20233;-71
2021/11/08 11:52:41;;;;;;;5.10;2.43;;;10.20;99.90;;;;;;5027104;28;20229;-70
2021/11/08 11:55:08;;;;;;;6.83;2.33;;;10.20;99.90;;;;;;5026736;28;20708;-70
2021/11/08 11:57:35;;;;;;;8.83;2.20;;;10.20;99.90;;;;;;5026826;28;20266;-70
2021/11/08 12:00:05;;;;;;;7.80;3.67;;;10.20;99.90;;;;;;5026812;28;20289;-71
2021/11/08 12:02:32;;;;;;;8.90;2.53;;;10.20;99.90;;;;;;5026901;28;20247;-70
2021/11/08 12:04:58;;;;;;;8.73;3.17;;;10.30;99.90;;;;;;5026858;28;20477;-70
2021/11/08 12:07:25;;;;;;;8.63;2.27;;;10.30;99.90;;;;;;5026892;28;20345;-71
2021/11/08 12:09:53;;;;;;;5.60;1.87;;;10.30;99.90;;;;;;5026809;28;20237;-70
2021/11/08 12:12:24;;;;;;;4.90;2.23;;;10.30;99.90;;;;;;5026610;28;20326;-70
2021/11/08 12:14:57;;;;;;;6.13;2.37;;;10.30;99.90;;;;;;5026867;28;20209;-70
2021/11/08 12:17:34;;;;;;;10.47;3.43;;;10.30;99.90;;;;;;5026416;28;20189;-70
2021/11/08 12:20:05;;;;;;;6.10;2.43;;;10.30;99.90;;;;;;5026566;28;20221;-70
2021/11/08 12:22:33;;;;;;;4.63;1.87;;;10.30;99.90;;;;;;5026511;28;20224;-70
2021/11/08 12:25:03;;;;;;;7.27;2.10;;;10.30;99.90;;;;;;5026506;28;20204;-70
2021/11/08 12:27:36;;;;;;;3.47;1.73;;;10.40;99.90;;;;;;5026412;28;20578;-70
2021/11/08 12:30:10;;;;;;;7.87;2.13;;;10.40;99.90;;;;;;5026461;28;20213;-71
2021/11/08 12:32:45;;;;;;;12.07;5.03;;;10.40;99.90;;;;;;5026229;28;20199;-70
2021/11/08 12:35:25;;;;;;;11.77;3.63;;;10.50;99.90;;;;;;5026373;28;20197;-70
2021/11/08 12:37:52;;;;;;;10.33;2.50;;;10.40;99.90;;;;;;5025752;28;20758;-70
2021/11/08 12:40:22;;;;;;;5.37;2.17;;;10.40;99.90;;;;;;5026074;28;20247;-70
2021/11/08 12:42:51;;;;;;;7.83;3.53;;;10.40;99.90;;;;;;5026195;28;20240;-71
2021/11/08 12:45:24;;;;;;;12.03;3.10;;;10.40;99.90;;;;;;5026053;28;20212;-70
2021/11/08 12:48:02;;;;;;;8.90;2.60;;;10.40;99.90;;;;;;5025915;28;20193;-70
2021/11/08 12:50:37;;;;;;;6.47;2.23;;;10.40;99.90;;;;;;5025902;28;20239;-71
2021/11/08 12:53:05;;;;;;;5.87;2.60;;;10.40;99.90;;;;;;5026037;28;20220;-70
2021/11/08 12:55:41;;;;;;;5.00;1.70;;;10.40;99.90;;;;;;5025581;28;20215;-70
2021/11/08 12:58:08;;;;;;;6.10;2.00;;;10.40;99.90;;;;;;5025885;28;20193;-70
2021/11/08 13:00:40;;;;;;;8.40;2.20;;;10.30;99.90;;;;;;5025453;28;20252;-70
2021/11/08 13:03:14;;;;;;;6.30;1.80;;;10.30;99.90;;;;;;5026051;28;20200;-70
2021/11/08 13:05:43;;;;;;;7.30;2.10;;;10.30;99.90;;;;;;5025784;28;20200;-70
2021/11/08 13:08:18;;;;;;;6.77;1.83;;;10.30;99.90;;;;;;5025697;28;20238;-70
2021/11/08 13:10:57;;;;;;;8.20;1.87;;;10.30;99.90;;;;;;5025834;28;20301;-70
2021/11/08 13:13:25;;;;;;;6.93;2.00;;;10.20;99.90;;;;;;5025680;28;20207;-71
2021/11/08 13:15:52;;;;;;;6.70;1.60;;;10.20;99.90;;;;;;5025495;28;20205;-71
2021/11/08 13:18:20;;;;;;;5.40;2.07;;;10.20;99.90;;;;;;5025670;28;20204;-71
2021/11/08 13:20:49;;;;;;;5.83;1.90;;;10.30;99.90;;;;;;5025549;28;20321;-71
2021/11/08 13:23:18;;;;;;;5.77;1.90;;;10.30;99.90;;;;;;5025642;28;20212;-71
2021/11/08 13:25:47;;;;;;;8.27;2.00;;;10.40;99.90;;;;;;5025583;28;20340;-71
2021/11/08 13:28:18;;;;;;;11.77;2.30;;;10.40;99.90;;;;;;5025194;28;20280;-71
2021/11/08 13:30:47;;;;;;;5.47;1.90;;;10.40;99.90;;;;;;5025082;28;20572;-71
2021/11/08 13:33:15;;;;;;;5.57;2.17;;;10.50;99.90;;;;;;5025430;28;20205;-71
2021/11/08 13:35:45;;;;;;;5.20;1.63;;;10.50;99.90;;;;;;5025109;28;20690;-71
2021/11/08 13:38:13;;;;;;;6.70;1.63;;;10.50;99.90;;;;;;5025535;28;20193;-71
2021/11/08 13:40:43;;;;;;;9.90;2.23;;;10.50;99.90;;;;;;5025836;28;20232;-71
2021/11/08 13:43:14;;;;;;;34.17;4.87;;;10.40;99.90;;;;;;5025595;28;20212;-71
2021/11/08 13:45:50;;;;;;;11.53;2.00;;;10.40;99.90;;;;;;5025537;28;20234;-71
2021/11/08 13:48:22;;;;;;;6.03;2.03;;;10.40;99.90;;;;;;5025326;28;20545;-71
2021/11/08 13:50:51;;;;;;;4.97;2.23;;;10.40;99.90;;;;;;5027598;28;20213;-71
2021/11/08 13:53:18;;;;;;;4.43;1.60;;;10.40;99.90;;;;;;5028407;28;20229;-71
2021/11/08 13:55:45;;;;;;;8.93;2.33;;;10.30;99.90;;;;;;5028355;28;20249;-71
2021/11/08 13:58:14;;;;;;;5.87;1.90;;;10.40;99.90;;;;;;5028781;28;20205;-71
2021/11/08 14:00:41;;;;;;;4.07;1.80;;;10.40;99.90;;;;;;5028229;28;20288;-71
2021/11/08 14:03:15;;;;;;;7.20;1.53;;;10.40;99.90;;;;;;5028858;28;20205;-71
2021/11/08 14:05:53;;;;;;;6.17;2.20;;;10.40;99.90;;;;;;5028337;28;20212;-71
2021/11/08 14:08:22;;;;;;;5.80;1.77;;;10.40;99.90;;;;;;5028542;28;20228;-71
2021/11/08 14:10:57;;;;;;;5.87;1.80;;;10.40;99.90;;;;;;5028483;28;20233;-71
2021/11/08 14:13:31;;;;;;;5.37;1.87;;;10.40;99.90;;;;;;5028390;28;20603;-71
2021/11/08 14:16:00;;;;;;;7.20;2.03;;;10.40;99.90;;;;;;5028174;28;20284;-71